MSC Anya — D5GD2 — position and weather

sailwx.info

Track history (hours):
 
Tides and Currents Weather Stations Pressure Air Temp Water Temp Dewpoint Dewpoint Depression Visibility Wind Speed Wind Dir Waves Ship Positions

MSC Anya

Last reported at 2018-Jun-20 03:00 UTC. Time now 2018-Jun-20 03:17 UTC.
Position S 34°04' E 151°22'.

Length 294 m; draft 10.6 m.

Type: Cargo ship. MMSI: 636016424.

Date/timePositionNaut miles runAvg speedWind from/ knotsBaromVisibWave heightAir tempDewpointWater temp
2018-Jun-20 03:00S 34°04' E 151°22'2 2.9
2018-Jun-20 02:21S 34°06' E 151°23'0 1.2
2018-Jun-20 02:00S 34°06' E 151°23'1 1.3
2018-Jun-20 01:28S 34°06' E 151°24'1 1.2
2018-Jun-20 00:57S 34°06' E 151°24'0 0.1
2018-Jun-20 00:30S 34°07' E 151°24'1 2.8
2018-Jun-20 00:00S 34°05' E 151°25'3 6.5
2018-Jun-19 23:30S 34°03' E 151°22'1 1.5
2018-Jun-19 23:00S 34°03' E 151°23'1 1.6
2018-Jun-19 22:30S 34°04' E 151°24'1 1.4
2018-Jun-19 21:57S 34°05' E 151°24'2 4.6
2018-Jun-19 21:30S 34°06' E 151°23'4 8.5
2018-Jun-19 21:00S 34°10' E 151°21'5 9.2
2018-Jun-19 20:28S 34°15' E 151°21'27413.4
2018-Jun-19 00:01S 38°23' E 148°57'118.8
2018-Jun-18 23:57S 38°24' E 148°56'193 5.2
2018-Jun-17 10:35S 37°49' E 144°55'0 0.1
2018-Jun-17 10:30S 37°49' E 144°55'  
2018-Jun-14 21:21S 33°24' E 152°26'1219.3
2018-Jun-14 20:42S 33°13' E 152°32'419.2
2018-Jun-14 20:30S 33°09' E 152°33'1118.9
2018-Jun-14 19:53S 32°58' E 152°38'719.3
2018-Jun-14 19:30S 32°51' E 152°41'1019.3
2018-Jun-14 19:00S 32°42' E 152°45'1019.4
2018-Jun-14 18:30S 32°33' E 152°49'1118.9
2018-Jun-14 17:54S 32°22' E 152°54'27719.2
2018-Jun-14 03:30S 27°52' E 154°03'  
Track history (hours):
 
Tides and Currents Weather Stations Pressure Air Temp Water Temp Dewpoint Dewpoint Depression Visibility Wind Speed Wind Dir Waves Ship Positions

MSC Anya

Last reported at 2018-Jun-20 03:00 UTC. Time now 2018-Jun-20 03:17 UTC.
Position S 34°04' E 151°22'.

Length 294 m; draft 10.6 m.

Type: Cargo ship. MMSI: 636016424.

Date/timePositionNaut miles runAvg speedWind from/ knotsBaromVisibWave heightAir tempDewpointWater temp
2018-Jun-20 03:00S 34°04' E 151°22'2 2.9
2018-Jun-20 02:21S 34°06' E 151°23'0 1.2
2018-Jun-20 02:00S 34°06' E 151°23'1 1.3
2018-Jun-20 01:28S 34°06' E 151°24'1 1.2
2018-Jun-20 00:57S 34°06' E 151°24'0 0.1
2018-Jun-20 00:30S 34°07' E 151°24'1 2.8
2018-Jun-20 00:00S 34°05' E 151°25'3 6.5
2018-Jun-19 23:30S 34°03' E 151°22'1 1.5
2018-Jun-19 23:00S 34°03' E 151°23'1 1.6
2018-Jun-19 22:30S 34°04' E 151°24'1 1.4
2018-Jun-19 21:57S 34°05' E 151°24'2 4.6
2018-Jun-19 21:30S 34°06' E 151°23'4 8.5
2018-Jun-19 21:00S 34°10' E 151°21'5 9.2
2018-Jun-19 20:28S 34°15' E 151°21'27413.4
2018-Jun-19 00:01S 38°23' E 148°57'118.8
2018-Jun-18 23:57S 38°24' E 148°56'193 5.2
2018-Jun-17 10:35S 37°49' E 144°55'0 0.1
2018-Jun-17 10:30S 37°49' E 144°55'  
2018-Jun-14 21:21S 33°24' E 152°26'1219.3
2018-Jun-14 20:42S 33°13' E 152°32'419.2
2018-Jun-14 20:30S 33°09' E 152°33'1118.9
2018-Jun-14 19:53S 32°58' E 152°38'719.3
2018-Jun-14 19:30S 32°51' E 152°41'1019.3
2018-Jun-14 19:00S 32°42' E 152°45'1019.4
2018-Jun-14 18:30S 32°33' E 152°49'1118.9
2018-Jun-14 17:54S 32°22' E 152°54'27719.2
2018-Jun-14 03:30S 27°52' E 154°03'  

Dump ship's entire track history